Time,TemperatureF,DewpointF,PressureIn,WindDirection,WindDirectionDegrees,WindSpeedMPH,WindSpeedGustMPH,Humidity,HourlyPrecipIn,Conditions,Clouds,dailyrainin,SoftwareType,DateUTC
2013-05-11 00:06:00,71.1,69.6,29.96,NE,45,1.6,4.5,95,0.04,,,0.00,pywws,2013-05-10 14:06:00,
2013-05-11 00:17:00,71.1,69.9,29.96,SW,225,2.2,4.5,96,0.04,,,0.00,pywws,2013-05-10 14:17:00,
2013-05-11 00:27:00,71.2,70.0,29.96,NE,45,4.5,7.6,96,0.04,,,0.00,pywws,2013-05-10 14:27:00,
2013-05-11 00:37:00,71.4,69.9,29.96,NE,45,3.1,5.4,95,0.04,,,0.00,pywws,2013-05-10 14:37:00,
2013-05-11 00:47:00,71.6,69.5,29.96,North,0,4.5,9.2,93,0.01,,,0.01,pywws,2013-05-10 14:47:00,
2013-05-11 00:57:00,71.4,69.6,29.96,NE,45,3.1,4.5,94,0.01,,,0.01,pywws,2013-05-10 14:57:00,
2013-05-11 01:06:00,70.9,69.4,29.96,South,180,1.6,3.8,95,0.04,,,0.04,pywws,2013-05-10 15:06:00,
2013-05-11 01:17:00,70.5,69.0,29.96,North,0,0.7,2.2,95,0.12,,,0.12,pywws,2013-05-10 15:17:00,
2013-05-11 01:27:00,70.0,68.8,29.94,NW,315,0.7,2.2,96,0.14,,,0.14,pywws,2013-05-10 15:27:00,
2013-05-11 01:37:00,70.0,69.1,29.93,NE,45,2.2,3.1,97,0.15,,,0.15,pywws,2013-05-10 15:37:00,
2013-05-11 01:47:00,70.0,69.4,29.94,North,0,5.4,7.6,98,0.17,,,0.18,pywws,2013-05-10 15:47:00,
2013-05-11 01:57:00,70.2,69.6,29.94,North,0,3.8,7.6,98,0.21,,,0.22,pywws,2013-05-10 15:57:00,
2013-05-11 02:06:00,70.0,69.4,29.94,NE,45,3.8,5.4,98,0.22,,,0.26,pywws,2013-05-10 16:06:00,
2013-05-11 02:17:00,69.8,69.2,29.93,West,270,1.6,3.1,98,0.18,,,0.30,pywws,2013-05-10 16:17:00,
2013-05-11 02:27:00,69.8,69.2,29.93,South,180,0.0,0.7,98,0.17,,,0.31,pywws,2013-05-10 16:27:00,
2013-05-11 02:37:00,69.6,69.3,29.94,North,0,1.6,3.1,99,0.18,,,0.33,pywws,2013-05-10 16:37:00,
2013-05-11 02:47:00,69.8,69.2,29.94,NE,45,3.8,6.0,98,0.24,,,0.41,pywws,2013-05-10 16:47:00,
2013-05-11 02:57:00,69.8,69.2,29.94,NE,45,3.8,5.4,98,0.22,,,0.45,pywws,2013-05-10 16:57:00,
2013-05-11 03:06:00,69.6,69.3,29.93,NE,45,1.6,3.1,99,0.24,,,0.50,pywws,2013-05-10 17:06:00,
2013-05-11 03:17:00,69.6,69.3,29.93,NE,45,1.6,4.5,99,0.22,,,0.52,pywws,2013-05-10 17:17:00,
2013-05-11 03:27:00,69.6,69.3,29.93,East,90,2.2,3.8,99,0.21,,,0.52,pywws,2013-05-10 17:27:00,
2013-05-11 03:37:00,69.6,69.3,29.93,SE,135,3.1,6.9,99,0.20,,,0.53,pywws,2013-05-10 17:37:00,
2013-05-11 03:47:00,69.6,69.3,29.93,North,0,2.2,6.0,99,0.13,,,0.54,pywws,2013-05-10 17:47:00,
2013-05-11 03:57:00,69.6,69.3,29.93,NE,45,2.2,6.9,99,0.11,,,0.56,pywws,2013-05-10 17:57:00,
2013-05-11 04:06:00,69.4,69.1,29.93,East,90,1.6,3.1,99,0.07,,,0.57,pywws,2013-05-10 18:06:00,
2013-05-11 04:17:00,69.4,69.1,29.93,North,0,3.8,5.4,99,0.05,,,0.57,pywws,2013-05-10 18:17:00,
2013-05-11 04:27:00,69.4,69.1,29.94,NNE,22,6.9,10.7,99,0.07,,,0.59,pywws,2013-05-10 18:27:00,
2013-05-11 04:37:00,69.4,69.1,29.94,South,180,1.6,3.8,99,0.07,,,0.60,pywws,2013-05-10 18:37:00,
2013-05-11 04:47:00,69.4,69.1,29.93,North,0,1.6,4.5,99,0.06,,,0.60,pywws,2013-05-10 18:47:00,
2013-05-11 04:57:00,69.8,68.9,29.93,NE,45,2.2,4.5,97,0.05,,,0.60,pywws,2013-05-10 18:57:00,
2013-05-11 05:06:00,69.8,68.6,29.93,NE,45,0.0,0.7,96,0.04,,,0.60,pywws,2013-05-10 19:06:00,
2013-05-11 05:17:00,70.0,68.8,29.93,NE,45,4.5,6.9,96,0.04,,,0.60,pywws,2013-05-10 19:17:00,
2013-05-11 05:27:00,70.2,69.0,29.94,NE,45,2.2,3.8,96,0.01,,,0.60,pywws,2013-05-10 19:27:00,
2013-05-11 05:37:00,70.0,68.8,29.94,NE,45,0.7,1.6,96,0.00,,,0.60,pywws,2013-05-10 19:37:00,
2013-05-11 05:47:00,69.8,68.6,29.94,NE,45,3.1,3.8,96,0.00,,,0.60,pywws,2013-05-10 19:47:00,
2013-05-11 05:57:00,69.4,68.8,29.94,SE,135,0.0,0.7,98,0.01,,,0.61,pywws,2013-05-10 19:57:00,
2013-05-11 06:06:00,69.3,68.7,29.94,NE,45,0.7,1.6,98,0.01,,,0.61,pywws,2013-05-10 20:06:00,
2013-05-11 06:17:00,69.3,69.0,29.95,SE,135,0.0,1.6,99,0.01,,,0.61,pywws,2013-05-10 20:17:00,
2013-05-11 06:27:00,69.4,69.1,29.95,NW,315,0.0,0.7,99,0.01,,,0.61,pywws,2013-05-10 20:27:00,
2013-05-11 06:37:00,69.4,69.1,29.96,SW,225,0.0,1.6,99,0.01,,,0.61,pywws,2013-05-10 20:37:00,
2013-05-11 06:47:00,69.4,69.1,29.98,NE,45,3.8,6.0,99,0.06,,,0.66,pywws,2013-05-10 20:47:00,
2013-05-11 06:57:00,69.3,69.0,29.99,NE,45,3.1,6.0,99,0.09,,,0.71,pywws,2013-05-10 20:57:00,
2013-05-11 07:06:00,69.1,68.8,29.99,South,180,0.0,0.0,99,0.09,,,0.71,pywws,2013-05-10 21:06:00,
2013-05-11 07:17:00,68.9,68.6,29.98,SE,135,0.7,3.1,99,0.09,,,0.71,pywws,2013-05-10 21:17:00,
2013-05-11 07:27:00,69.1,68.8,29.97,NW,315,3.8,6.9,99,0.09,,,0.71,pywws,2013-05-10 21:27:00,
2013-05-11 07:37:00,69.8,69.2,29.98,East,90,0.7,1.6,98,0.11,,,0.72,pywws,2013-05-10 21:37:00,
2013-05-11 07:47:00,70.5,69.9,29.98,NE,45,1.6,2.2,98,0.06,,,0.72,pywws,2013-05-10 21:47:00,
2013-05-11 07:57:00,72.1,70.9,29.97,NE,45,2.2,3.8,96,0.01,,,0.72,pywws,2013-05-10 21:57:00,
2013-05-11 07:58:00,72.7,71.2,29.97,North,0,6.9,8.3,95,0.01,,,0.72,pywws,2013-05-10 21:58:00,
2013-05-11 07:59:00,73.0,71.5,29.97,NW,315,3.1,6.9,95,0.01,,,0.72,pywws,2013-05-10 21:59:00,
2013-05-11 08:01:00,73.4,72.2,29.98,NW,315,0.0,1.6,96,0.01,,,0.72,pywws,2013-05-10 22:01:00,
2013-05-11 08:06:00,74.8,72.7,29.98,NE,45,2.2,3.1,93,0.01,,,0.72,pywws,2013-05-10 22:06:00,
2013-05-11 08:09:00,75.7,72.6,29.98,NNE,22,2.2,6.0,90,0.01,,,0.72,pywws,2013-05-10 22:09:00,
2013-05-11 08:17:00,76.1,72.3,29.98,North,0,7.6,9.8,88,0.01,,,0.72,pywws,2013-05-10 22:17:00,
2013-05-11 08:27:00,77.2,72.7,29.98,NE,45,1.6,3.1,86,0.01,,,0.72,pywws,2013-05-10 22:27:00,
2013-05-11 08:37:00,78.1,72.5,29.98,NNE,22,6.0,8.3,83,0.00,,,0.72,pywws,2013-05-10 22:37:00,
2013-05-11 08:47:00,78.6,72.6,29.99,NE,45,5.4,8.3,82,0.00,,,0.72,pywws,2013-05-10 22:47:00,
2013-05-11 08:57:00,78.3,72.3,29.99,NE,45,6.9,13.0,82,0.00,,,0.72,pywws,2013-05-10 22:57:00,
2013-05-11 09:06:00,78.8,71.3,29.99,NE,45,3.1,6.0,78,0.00,,,0.72,pywws,2013-05-10 23:06:00,
2013-05-11 09:17:00,77.5,71.2,29.99,NE,45,1.6,3.1,81,0.00,,,0.72,pywws,2013-05-10 23:17:00,
2013-05-11 09:27:00,79.0,71.9,29.99,NNE,22,3.1,5.4,79,0.00,,,0.72,pywws,2013-05-10 23:27:00,
2013-05-11 09:37:00,81.5,72.8,29.99,North,0,5.4,10.7,75,0.00,,,0.72,pywws,2013-05-10 23:37:00,
2013-05-11 09:47:00,81.5,72.4,29.99,NE,45,5.4,8.3,74,0.00,,,0.72,pywws,2013-05-10 23:47:00,
2013-05-11 09:57:00,81.3,72.6,29.99,East,90,2.2,3.8,75,0.00,,,0.72,pywws,2013-05-10 23:57:00,
2013-05-11 10:06:00,81.0,72.3,29.99,NE,45,3.1,6.0,75,0.00,,,0.72,pywws,2013-05-11 00:06:00,
2013-05-11 10:17:00,82.6,73.0,29.99,NE,45,4.5,6.9,73,0.00,,,0.72,pywws,2013-05-11 00:17:00,
2013-05-11 10:27:00,83.7,73.2,29.98,NE,45,3.1,6.0,71,0.00,,,0.72,pywws,2013-05-11 00:27:00,
2013-05-11 10:37:00,81.0,71.5,29.98,NW,315,1.6,4.5,73,0.00,,,0.72,pywws,2013-05-11 00:37:00,
2013-05-11 10:47:00,83.3,72.9,29.97,North,0,7.6,10.7,71,0.00,,,0.72,pywws,2013-05-11 00:47:00,
2013-05-11 10:57:00,81.7,72.6,29.98,NE,45,5.4,7.6,74,0.00,,,0.72,pywws,2013-05-11 00:57:00,
2013-05-11 11:06:00,83.8,73.8,29.96,North,0,3.1,5.4,72,0.00,,,0.72,pywws,2013-05-11 01:06:00,
2013-05-11 11:17:00,77.9,72.7,29.97,NE,45,3.8,6.0,84,0.05,,,0.77,pywws,2013-05-11 01:17:00,
2013-05-11 11:27:00,78.8,73.5,29.96,NE,45,4.5,6.9,84,0.05,,,0.77,pywws,2013-05-11 01:27:00,
2013-05-11 11:37:00,79.7,73.3,29.96,NNE,22,3.8,9.2,81,0.05,,,0.77,pywws,2013-05-11 01:37:00,
2013-05-11 11:47:00,82.4,73.7,29.95,NE,45,5.4,9.8,75,0.05,,,0.77,pywws,2013-05-11 01:47:00,
2013-05-11 11:57:00,80.4,72.9,29.95,North,0,0.7,3.1,78,0.05,,,0.77,pywws,2013-05-11 01:57:00,
2013-05-11 12:06:00,79.3,73.4,29.95,NE,45,4.5,8.3,82,0.06,,,0.78,pywws,2013-05-11 02:06:00,
2013-05-11 12:17:00,80.8,72.9,29.94,NW,315,1.6,4.5,77,0.01,,,0.78,pywws,2013-05-11 02:17:00,
2013-05-11 12:27:00,80.2,72.0,29.94,South,180,4.5,7.6,76,0.01,,,0.78,pywws,2013-05-11 02:27:00,
2013-05-11 12:37:00,75.6,71.4,29.94,West,270,5.4,9.2,87,0.02,,,0.79,pywws,2013-05-11 02:37:00,
2013-05-11 12:47:00,79.2,73.5,29.93,North,0,9.2,14.5,83,0.02,,,0.79,pywws,2013-05-11 02:47:00,
2013-05-11 12:57:00,80.6,73.5,29.92,NE,45,2.2,8.3,79,0.02,,,0.79,pywws,2013-05-11 02:57:00,
2013-05-11 13:06:00,81.5,73.2,29.92,NE,45,7.6,9.8,76,0.01,,,0.79,pywws,2013-05-11 03:06:00,
2013-05-11 13:17:00,81.7,73.0,29.92,NE,45,4.5,6.9,75,0.01,,,0.79,pywws,2013-05-11 03:17:00,
2013-05-11 13:27:00,81.7,72.6,29.91,North,0,3.1,4.5,74,0.01,,,0.79,pywws,2013-05-11 03:27:00,
2013-05-11 13:37:00,82.6,73.8,29.90,East,90,7.6,11.4,75,0.00,,,0.79,pywws,2013-05-11 03:37:00,
2013-05-11 13:47:00,83.8,73.8,29.90,North,0,6.0,7.6,72,0.00,,,0.79,pywws,2013-05-11 03:47:00,
2013-05-11 13:57:00,85.3,73.5,29.90,NE,45,3.8,4.5,68,0.00,,,0.79,pywws,2013-05-11 03:57:00,
2013-05-11 14:01:00,85.1,72.9,29.89,NE,45,4.5,7.6,67,0.00,,,0.79,pywws,2013-05-11 04:01:00,
2013-05-11 14:06:00,85.1,73.3,29.89,NE,45,4.5,6.9,68,0.00,,,0.79,pywws,2013-05-11 04:06:00,
2013-05-11 14:07:00,84.7,73.0,29.89,NE,45,4.5,9.2,68,0.00,,,0.79,pywws,2013-05-11 04:07:00,
2013-05-11 14:08:00,84.4,72.6,29.89,North,0,4.5,7.6,68,0.00,,,0.79,pywws,2013-05-11 04:08:00,
2013-05-11 14:09:00,83.8,72.6,29.89,NE,45,6.0,10.7,69,0.00,,,0.79,pywws,2013-05-11 04:09:00,
2013-05-11 14:17:00,81.9,71.9,29.88,East,90,2.2,3.1,72,0.00,,,0.79,pywws,2013-05-11 04:17:00,
2013-05-11 14:27:00,81.3,72.2,29.89,NE,45,6.0,13.0,74,0.01,,,0.80,pywws,2013-05-11 04:27:00,
2013-05-11 14:37:00,81.9,72.3,29.88,North,0,4.5,9.2,73,0.01,,,0.80,pywws,2013-05-11 04:37:00,
2013-05-11 14:47:00,79.9,71.2,29.89,NE,45,6.9,9.8,75,0.01,,,0.80,pywws,2013-05-11 04:47:00,
2013-05-11 14:57:00,78.3,70.8,29.89,North,0,3.1,3.8,78,0.01,,,0.80,pywws,2013-05-11 04:57:00,
2013-05-11 15:06:00,79.3,70.7,29.88,NE,45,6.0,9.8,75,0.01,,,0.80,pywws,2013-05-11 05:06:00,
2013-05-11 15:17:00,81.5,72.0,29.88,NE,45,6.0,13.0,73,0.01,,,0.80,pywws,2013-05-11 05:17:00,
2013-05-11 15:27:00,82.4,72.0,29.88,NE,45,6.0,14.5,71,0.00,,,0.80,pywws,2013-05-11 05:27:00,
2013-05-11 15:37:00,81.5,72.0,29.88,West,270,3.1,6.0,73,0.00,,,0.80,pywws,2013-05-11 05:37:00,
2013-05-11 15:47:00,79.9,72.0,29.88,NE,45,3.8,6.9,77,0.00,,,0.80,pywws,2013-05-11 05:47:00,
2013-05-11 15:57:00,78.6,71.5,29.88,East,90,6.0,8.3,79,0.00,,,0.80,pywws,2013-05-11 05:57:00,
2013-05-11 16:06:00,80.1,72.2,29.88,NNE,22,6.0,8.3,77,0.00,,,0.80,pywws,2013-05-11 06:06:00,
2013-05-11 16:17:00,80.8,72.1,29.88,NE,45,6.0,7.6,75,0.00,,,0.80,pywws,2013-05-11 06:17:00,
2013-05-11 16:27:00,80.2,71.6,29.88,North,0,7.6,13.0,75,0.00,,,0.80,pywws,2013-05-11 06:27:00,
2013-05-11 16:37:00,79.9,71.2,29.88,NE,45,7.6,11.4,75,0.00,,,0.80,pywws,2013-05-11 06:37:00,
2013-05-11 16:47:00,80.1,71.4,29.88,NE,45,4.5,6.9,75,0.00,,,0.80,pywws,2013-05-11 06:47:00,
2013-05-11 16:57:00,79.0,70.4,29.88,East,90,4.5,6.9,75,0.00,,,0.80,pywws,2013-05-11 06:57:00,
2013-05-11 17:06:00,77.9,70.8,29.89,NE,45,3.8,6.0,79,0.00,,,0.80,pywws,2013-05-11 07:06:00,
2013-05-11 17:17:00,77.2,70.5,29.89,West,270,0.7,3.1,80,0.00,,,0.80,pywws,2013-05-11 07:17:00,
2013-05-11 17:27:00,77.0,70.7,29.89,North,0,4.5,8.3,81,0.00,,,0.80,pywws,2013-05-11 07:27:00,
2013-05-11 17:37:00,75.9,71.1,29.90,NNE,22,3.1,5.4,85,0.00,,,0.80,pywws,2013-05-11 07:37:00,
2013-05-11 17:47:00,75.7,70.5,29.90,NE,45,6.0,9.2,84,0.00,,,0.80,pywws,2013-05-11 07:47:00,
2013-05-11 17:57:00,75.7,70.5,29.90,North,0,3.8,5.4,84,0.00,,,0.80,pywws,2013-05-11 07:57:00,
2013-05-11 18:06:00,75.7,70.5,29.91,NE,45,4.5,6.9,84,0.00,,,0.80,pywws,2013-05-11 08:06:00,
2013-05-11 18:17:00,75.7,70.5,29.91,NE,45,6.0,9.2,84,0.00,,,0.80,pywws,2013-05-11 08:17:00,
2013-05-11 18:27:00,75.7,70.5,29.91,NE,45,4.5,7.6,84,0.00,,,0.80,pywws,2013-05-11 08:27:00,
2013-05-11 18:37:00,75.6,70.4,29.91,NE,45,4.5,6.9,84,0.00,,,0.80,pywws,2013-05-11 08:37:00,
2013-05-11 18:47:00,75.7,70.5,29.92,South,180,3.1,7.6,84,0.00,,,0.80,pywws,2013-05-11 08:47:00,
2013-05-11 18:57:00,75.7,70.5,29.92,NE,45,3.8,7.6,84,0.00,,,0.80,pywws,2013-05-11 08:57:00,
2013-05-11 19:06:00,75.6,70.4,29.93,NNE,22,7.6,13.0,84,0.00,,,0.80,pywws,2013-05-11 09:06:00,
2013-05-11 19:17:00,74.3,70.5,29.93,West,270,2.2,3.8,88,0.00,,,0.80,pywws,2013-05-11 09:17:00,
2013-05-11 19:27:00,73.0,69.6,29.94,East,90,1.6,3.1,89,0.00,,,0.80,pywws,2013-05-11 09:27:00,
2013-05-11 19:37:00,73.0,70.3,29.94,NE,45,1.6,3.8,91,0.00,,,0.80,pywws,2013-05-11 09:37:00,
2013-05-11 19:47:00,73.0,70.3,29.95,NE,45,4.5,7.6,91,0.00,,,0.80,pywws,2013-05-11 09:47:00,
2013-05-11 19:57:00,72.7,70.2,29.95,East,90,0.7,2.2,92,0.05,,,0.85,pywws,2013-05-11 09:57:00,
2013-05-11 20:06:00,72.3,70.5,29.96,NE,45,2.2,3.8,94,0.05,,,0.85,pywws,2013-05-11 10:06:00,
2013-05-11 20:17:00,72.3,70.5,29.95,North,0,7.6,9.8,94,0.05,,,0.85,pywws,2013-05-11 10:17:00,
2013-05-11 20:27:00,72.7,70.5,29.96,East,90,2.2,5.4,93,0.05,,,0.85,pywws,2013-05-11 10:27:00,
2013-05-11 20:37:00,73.0,70.6,29.96,WSW,248,5.4,7.6,92,0.05,,,0.85,pywws,2013-05-11 10:37:00,
2013-05-11 20:47:00,73.8,71.0,29.95,West,270,2.2,4.5,91,0.05,,,0.85,pywws,2013-05-11 10:47:00,
2013-05-11 20:57:00,74.1,71.0,29.95,NE,45,6.9,8.3,90,0.00,,,0.85,pywws,2013-05-11 10:57:00,
2013-05-11 21:06:00,74.7,70.9,29.95,NE,45,1.6,3.1,88,0.00,,,0.85,pywws,2013-05-11 11:06:00,
2013-05-11 21:17:00,75.0,70.9,29.95,North,0,2.2,5.4,87,0.00,,,0.85,pywws,2013-05-11 11:17:00,
2013-05-11 21:27:00,74.8,70.7,29.95,NE,45,6.9,10.7,87,0.00,,,0.85,pywws,2013-05-11 11:27:00,
2013-05-11 21:37:00,74.1,70.7,29.96,NE,45,2.2,3.8,89,0.01,,,0.86,pywws,2013-05-11 11:37:00,
2013-05-11 21:47:00,73.9,70.8,29.95,NW,315,3.1,6.0,90,0.01,,,0.86,pywws,2013-05-11 11:47:00,
2013-05-11 21:57:00,74.1,70.3,29.96,NE,45,6.9,12.1,88,0.01,,,0.86,pywws,2013-05-11 11:57:00,
2013-05-11 22:06:00,74.3,70.2,29.95,North,0,1.6,3.1,87,0.01,,,0.86,pywws,2013-05-11 12:06:00,
2013-05-11 22:17:00,73.9,70.2,29.95,East,90,3.1,7.6,88,0.01,,,0.86,pywws,2013-05-11 12:17:00,
2013-05-11 22:27:00,73.6,70.1,29.96,NE,45,2.2,3.8,89,0.01,,,0.86,pywws,2013-05-11 12:27:00,
2013-05-11 22:37:00,73.9,70.5,29.96,South,180,1.6,2.2,89,0.00,,,0.86,pywws,2013-05-11 12:37:00,
2013-05-11 22:47:00,73.8,70.3,29.96,North,0,2.2,3.8,89,0.01,,,0.87,pywws,2013-05-11 12:47:00,
2013-05-11 22:57:00,73.2,70.1,29.96,North,0,0.7,2.2,90,0.01,,,0.87,pywws,2013-05-11 12:57:00,
2013-05-11 23:06:00,73.2,70.4,29.96,NE,45,3.8,5.4,91,0.01,,,0.87,pywws,2013-05-11 13:06:00,
2013-05-11 23:17:00,73.2,70.1,29.96,NNE,22,3.8,5.4,90,0.01,,,0.87,pywws,2013-05-11 13:17:00,
2013-05-11 23:27:00,73.4,70.3,29.95,North,0,0.7,2.2,90,0.01,,,0.87,pywws,2013-05-11 13:27:00,
2013-05-11 23:37:00,73.9,70.5,29.94,East,90,2.2,3.8,89,0.01,,,0.87,pywws,2013-05-11 13:37:00,
2013-05-11 23:47:00,73.9,70.5,29.95,East,90,3.1,5.4,89,0.00,,,0.87,pywws,2013-05-11 13:47:00,
2013-05-11 23:57:00,74.5,70.3,29.94,NE,45,3.1,6.0,87,0.00,,,0.87,pywws,2013-05-11 13:57:00,